Millinocket, Maine
Current Conditions -  °F | °C
As of 12:53 AM on Thursday 29 Jan 2015 (Local Time) from KMLT Reporting Station
Clear Clear  
Wind Chill: -2°   Ceiling: Unl
Heat Index: 11°   Visibility: 10mi
Dew Point:   Wind: 9mph
Humidity: 61%   Direction: 300°WNW
Pressure: 30.15"   Gusts: 20mph
Location:  45.66°N, 68.71°W
Report Text: KMLT 290553Z AUTO 30008G17KT 10SM CLR M12/M18 A3015 RMK AO2 SLP223 T11171178 11078 21122 51023
Loading
Personal Weather Stations






























Interactive Weather Map New forecast layout! Learn more

10-Day Weather Forecast

Advertisements
Track Severe Weather on mobile